Time;durP1;ratioP1;P1;durP2;ratioP2;P2;SDS_P1;SDS_P2;PMS_P1;PMS_P2;Temp;Humidity;BMP_temperature;BMP_pressure;BME280_temperature;BME280_humidity;BME280_pressure;Samples;Min_cycle;Max_cycle;Signal;HPM_P1;HPM_P2
2023/07/30 00:00:50;;;;;;;9.57;3.63;;;;;;;14.77;100.00;100738.81;5012364;28;20054;-56
2023/07/30 00:03:18;;;;;;;9.00;3.45;;;;;;;14.82;100.00;100742.75;5012159;28;20042;-56
2023/07/30 00:05:53;;;;;;;10.35;3.63;;;;;;;14.75;100.00;100732.81;5012265;28;20409;-56
2023/07/30 00:08:24;;;;;;;11.98;4.22;;;;;;;14.71;100.00;100737.50;5012187;28;20129;-56
2023/07/30 00:10:52;;;;;;;8.18;3.47;;;;;;;14.70;100.00;100741.97;5012276;28;20049;-56
2023/07/30 00:13:21;;;;;;;11.38;3.75;;;;;;;14.67;100.00;100747.53;5009509;28;20113;-56
2023/07/30 00:15:49;;;;;;;9.73;3.90;;;;;;;14.66;100.00;100742.38;5008509;28;20038;-57
2023/07/30 00:18:18;;;;;;;11.32;4.28;;;;;;;14.72;100.00;100744.50;5009102;28;20042;-61
2023/07/30 00:20:47;;;;;;;9.60;3.88;;;;;;;14.72;100.00;100738.38;5008144;28;20054;-56
2023/07/30 00:23:15;;;;;;;9.32;3.22;;;;;;;14.67;100.00;100734.31;5007538;28;20481;-57
2023/07/30 00:25:45;;;;;;;11.18;3.83;;;;;;;14.62;100.00;100738.28;5008613;28;20081;-61
2023/07/30 00:28:13;;;;;;;11.40;3.70;;;;;;;14.63;100.00;100737.31;5011587;28;20120;-61
2023/07/30 00:30:42;;;;;;;9.63;3.90;;;;;;;14.68;100.00;100748.38;5012505;28;20511;-61
2023/07/30 00:33:10;;;;;;;11.65;3.50;;;;;;;14.66;100.00;100747.66;5010068;28;20050;-55
2023/07/30 00:35:39;;;;;;;9.13;3.53;;;;;;;14.61;100.00;100745.34;5007993;28;20081;-56
2023/07/30 00:38:08;;;;;;;9.38;3.30;;;;;;;14.62;100.00;100741.75;5010374;28;20056;-56
2023/07/30 00:40:41;;;;;;;12.70;3.50;;;;;;;14.63;100.00;100742.63;5009506;28;20429;-56
2023/07/30 00:43:11;;;;;;;11.70;3.28;;;;;;;14.63;100.00;100735.53;5007674;28;20046;-61
2023/07/30 00:45:43;;;;;;;9.05;3.28;;;;;;;14.57;100.00;100745.75;5012356;28;20053;-62
2023/07/30 00:48:12;;;;;;;9.53;3.90;;;;;;;14.60;100.00;100745.50;5012099;28;20501;-62
2023/07/30 00:50:41;;;;;;;7.55;3.15;;;;;;;14.55;100.00;100748.53;5015358;28;20514;-61
2023/07/30 00:53:13;;;;;;;10.55;3.33;;;;;;;14.53;100.00;100745.16;5015893;28;20045;-61
2023/07/30 00:55:41;;;;;;;7.88;3.20;;;;;;;14.46;100.00;100751.94;5016040;28;20386;-61
2023/07/30 00:58:11;;;;;;;9.20;3.08;;;;;;;14.46;100.00;100751.94;5015886;28;20149;-61
2023/07/30 01:00:40;;;;;;;11.68;3.15;;;;;;;14.45;100.00;100753.75;5014489;28;20057;-61
2023/07/30 01:03:09;;;;;;;9.32;3.65;;;;;;;14.38;100.00;100749.91;5015459;28;20124;-61
2023/07/30 01:05:37;;;;;;;11.73;3.55;;;;;;;14.41;100.00;100748.81;5016134;28;20056;-61
2023/07/30 01:08:09;;;;;;;10.38;3.45;;;;;;;14.40;100.00;100755.09;5015730;28;20461;-62
2023/07/30 01:10:42;;;;;;;11.57;3.80;;;;;;;14.45;100.00;100758.19;5015624;28;20065;-61
2023/07/30 01:13:13;;;;;;;13.35;3.95;;;;;;;14.36;100.00;100754.50;5015579;28;20049;-61
2023/07/30 01:15:43;;;;;;;11.45;3.88;;;;;;;14.35;100.00;100758.13;5015549;28;20473;-62
2023/07/30 01:18:12;;;;;;;12.98;4.13;;;;;;;14.35;100.00;100755.47;5015897;28;20120;-61
2023/07/30 01:20:41;;;;;;;8.73;3.55;;;;;;;14.32;100.00;100755.72;5015639;28;20041;-61
2023/07/30 01:23:11;;;;;;;10.07;3.80;;;;;;;14.29;100.00;100759.47;5015251;28;20129;-62
2023/07/30 01:25:41;;;;;;;12.10;3.88;;;;;;;14.27;100.00;100758.75;5015012;28;20053;-63
2023/07/30 01:28:13;;;;;;;10.02;3.70;;;;;;;14.21;100.00;100769.84;5015273;28;20042;-61
2023/07/30 01:30:43;;;;;;;11.23;3.95;;;;;;;14.23;100.00;100772.34;5015424;28;20429;-61
2023/07/30 01:33:12;;;;;;;9.73;3.50;;;;;;;14.15;100.00;100772.97;5015064;28;20042;-62
2023/07/30 01:35:44;;;;;;;9.80;3.65;;;;;;;14.14;100.00;100777.44;5014774;28;20045;-62
2023/07/30 01:38:14;;;;;;;10.63;3.80;;;;;;;14.13;100.00;100770.47;5015380;28;20048;-62
2023/07/30 01:40:43;;;;;;;8.13;3.50;;;;;;;14.14;100.00;100773.97;5014820;28;20053;-56
2023/07/30 01:43:11;;;;;;;10.50;4.47;;;;;;;14.16;100.00;100774.66;5012048;28;20120;-57
2023/07/30 01:45:40;;;;;;;8.48;3.85;;;;;;;14.14;100.00;100776.59;5010627;28;20054;-56
2023/07/30 01:48:09;;;;;;;11.02;3.83;;;;;;;14.14;100.00;100781.91;5011614;28;20049;-56
2023/07/30 01:50:37;;;;;;;9.73;3.60;;;;;;;14.10;100.00;100791.88;5013352;28;20073;-56
2023/07/30 01:53:06;;;;;;;9.43;3.45;;;;;;;14.09;100.00;100782.25;5010401;28;20132;-56
2023/07/30 01:55:36;;;;;;;8.27;4.25;;;;;;;14.05;100.00;100785.28;5011794;28;20049;-56
2023/07/30 01:58:07;;;;;;;11.68;4.25;;;;;;;13.99;100.00;100779.50;5011118;28;20058;-55
2023/07/30 02:00:36;;;;;;;12.57;3.78;;;;;;;14.06;100.00;100782.50;5009041;28;20077;-56
2023/07/30 02:03:04;;;;;;;16.90;4.15;;;;;;;13.99;100.00;100783.97;5009152;28;20129;-55
2023/07/30 02:05:33;;;;;;;10.57;4.22;;;;;;;13.96;100.00;100777.13;5012219;28;20037;-55
2023/07/30 02:08:01;;;;;;;11.85;4.03;;;;;;;13.98;100.00;100788.41;5014874;28;20050;-61
2023/07/30 02:10:29;;;;;;;11.77;4.22;;;;;;;14.01;100.00;100780.22;5014465;28;20500;-62
2023/07/30 02:12:59;;;;;;;11.57;4.15;;;;;;;14.00;100.00;100775.06;5014510;28;20775;-60
2023/07/30 02:15:28;;;;;;;8.75;3.88;;;;;;;13.94;100.00;100776.38;5014131;28;20104;-62
2023/07/30 02:17:56;;;;;;;11.27;3.88;;;;;;;13.94;100.00;100773.75;5013316;28;20081;-61
2023/07/30 02:20:24;;;;;;;10.00;3.85;;;;;;;13.95;100.00;100777.25;5014014;28;20096;-55
2023/07/30 02:22:53;;;;;;;12.90;4.35;;;;;;;13.93;100.00;100771.22;5012443;28;20034;-61
2023/07/30 02:25:21;;;;;;;11.43;4.40;;;;;;;13.93;100.00;100768.59;5010325;28;20072;-62
2023/07/30 02:27:50;;;;;;;14.55;4.40;;;;;;;13.90;100.00;100769.66;5013783;28;20070;-61
2023/07/30 02:30:20;;;;;;;8.30;3.47;;;;;;;13.91;100.00;100771.34;5013795;28;20038;-61
2023/07/30 02:32:48;;;;;;;10.70;3.95;;;;;;;13.93;100.00;100768.59;5012244;28;20077;-62
2023/07/30 02:35:19;;;;;;;11.45;4.10;;;;;;;13.96;100.00;100763.03;5013888;28;20053;-61
2023/07/30 02:37:48;;;;;;;13.85;4.38;;;;;;;13.92;100.00;100759.81;5013454;28;20050;-61
2023/07/30 02:40:17;;;;;;;11.23;4.53;;;;;;;13.93;100.00;100758.00;5013198;28;20046;-54
2023/07/30 02:42:45;;;;;;;12.25;4.07;;;;;;;13.96;100.00;100757.75;5009887;28;20037;-56
2023/07/30 02:45:14;;;;;;;15.63;4.32;;;;;;;13.97;100.00;100762.91;5009535;28;20050;-56
2023/07/30 02:47:43;;;;;;;14.05;4.00;;;;;;;14.01;100.00;100760.88;5009677;28;20057;-55
2023/07/30 02:50:12;;;;;;;13.02;4.28;;;;;;;14.00;100.00;100757.41;5012535;28;20065;-61
2023/07/30 02:52:40;;;;;;;13.57;4.40;;;;;;;14.06;100.00;100755.19;5013797;28;20054;-61
2023/07/30 02:55:09;;;;;;;12.98;4.18;;;;;;;14.06;100.00;100758.72;5012072;28;20048;-56
2023/07/30 02:57:38;;;;;;;12.45;4.70;;;;;;;14.10;100.00;100760.13;5009701;28;20046;-56
2023/07/30 03:00:08;;;;;;;13.15;5.00;;;;;;;14.13;100.00;100756.41;5009685;28;20053;-56
2023/07/30 03:02:36;;;;;;;11.98;4.45;;;;;;;14.15;100.00;100754.47;5011930;28;20465;-56
2023/07/30 03:05:07;;;;;;;11.80;4.70;;;;;;;14.25;100.00;100758.03;5013112;28;20505;-56
2023/07/30 03:07:36;;;;;;;15.05;5.07;;;;;;;14.25;100.00;100754.53;5008764;28;20524;-56
2023/07/30 03:10:05;;;;;;;16.77;4.88;;;;;;;14.21;100.00;100751.31;5008145;28;20573;-56
2023/07/30 03:12:33;;;;;;;13.73;4.80;;;;;;;14.22;100.00;100753.00;5009478;28;20045;-55
2023/07/30 03:15:02;;;;;;;14.00;5.25;;;;;;;14.24;100.00;100755.53;5009862;28;20040;-60
2023/07/30 03:17:30;;;;;;;12.07;4.63;;;;;;;14.31;100.00;100761.97;5011532;28;20153;-62
2023/07/30 03:19:59;;;;;;;14.07;5.32;;;;;;;14.29;100.00;100758.59;5013166;28;20124;-60
2023/07/30 03:22:28;;;;;;;20.00;5.80;;;;;;;14.29;100.00;100759.47;5013464;28;20073;-62
2023/07/30 03:24:57;;;;;;;14.82;6.05;;;;;;;14.29;100.00;100758.59;5013537;28;20621;-61
2023/07/30 03:27:25;;;;;;;16.63;6.63;;;;;;;14.34;100.00;100762.59;5012808;28;20050;-62
2023/07/30 03:29:54;;;;;;;15.95;5.85;;;;;;;14.42;100.00;100764.56;5013097;28;20116;-56
2023/07/30 03:32:22;;;;;;;15.20;5.43;;;;;;;14.41;100.00;100767.34;5012541;28;20161;-60
2023/07/30 03:34:51;;;;;;;19.38;6.70;;;;;;;14.39;100.00;100764.00;5012524;28;20049;-62
2023/07/30 03:37:19;;;;;;;19.52;5.75;;;;;;;14.44;100.00;100764.44;5012731;28;20045;-56
2023/07/30 03:39:49;;;;;;;15.85;5.72;;;;;;;14.43;100.00;100760.13;5012303;28;20050;-55
2023/07/30 03:42:17;;;;;;;15.85;6.63;;;;;;;14.44;100.00;100761.78;5012241;28;20044;-62
2023/07/30 03:44:45;;;;;;;20.77;7.70;;;;;;;14.51;100.00;100773.56;5012656;28;20046;-61
2023/07/30 03:47:14;;;;;;;19.30;6.43;;;;;;;14.51;100.00;100768.28;5012679;28;20137;-61
2023/07/30 03:49:42;;;;;;;16.17;6.35;;;;;;;14.55;100.00;100772.34;5012479;28;20477;-61
2023/07/30 03:52:11;;;;;;;16.13;5.88;;;;;;;14.56;100.00;100765.25;5010684;28;20082;-60
2023/07/30 03:54:40;;;;;;;15.38;6.70;;;;;;;14.55;100.00;100775.00;5012603;28;20394;-62
2023/07/30 03:57:10;;;;;;;21.02;7.30;;;;;;;14.59;100.00;100779.06;5012376;28;20045;-61
2023/07/30 03:59:38;;;;;;;17.67;6.68;;;;;;;14.55;100.00;100780.28;5012505;28;20073;-62
2023/07/30 04:02:06;;;;;;;19.00;6.80;;;;;;;14.58;100.00;100784.50;5012111;28;20038;-62
2023/07/30 04:04:35;;;;;;;17.17;6.95;;;;;;;14.66;100.00;100784.72;5012222;28;20126;-62
2023/07/30 04:07:03;;;;;;;16.05;6.43;;;;;;;14.63;100.00;100785.81;5009139;28;20117;-55
2023/07/30 04:09:32;;;;;;;16.35;6.57;;;;;;;14.67;100.00;100781.94;5007521;28;20550;-61
2023/07/30 04:12:00;;;;;;;15.50;6.85;;;;;;;14.65;100.00;100780.38;5011692;28;20056;-61
2023/07/30 04:14:30;;;;;;;21.98;7.68;;;;;;;14.67;100.00;100776.66;5012143;28;20056;-62
2023/07/30 04:16:59;;;;;;;20.58;8.10;;;;;;;14.64;100.00;100784.00;5012250;28;20073;-61
2023/07/30 04:19:27;;;;;;;19.65;7.80;;;;;;;14.64;100.00;100784.84;5009828;28;20735;-55
2023/07/30 04:21:56;;;;;;;19.35;7.90;;;;;;;14.63;100.00;100780.53;5008162;28;20143;-56
2023/07/30 04:24:25;;;;;;;20.92;7.53;;;;;;;14.69;100.00;100782.63;5007875;28;20124;-56
2023/07/30 04:26:54;;;;;;;18.02;7.78;;;;;;;14.70;100.00;100783.50;5010777;28;20061;-56
2023/07/30 04:29:22;;;;;;;21.00;8.02;;;;;;;14.75;100.00;100785.75;5013342;28;20528;-55
2023/07/30 04:31:52;;;;;;;19.73;7.88;;;;;;;14.76;100.00;100782.97;5015583;28;20132;-55
2023/07/30 04:34:20;;;;;;;19.80;7.28;;;;;;;14.85;100.00;100789.31;5015647;28;20054;-55
2023/07/30 04:36:49;;;;;;;20.05;8.52;;;;;;;14.85;100.00;100790.16;5015473;28;20061;-56
2023/07/30 04:39:18;;;;;;;18.48;8.18;;;;;;;14.91;100.00;100793.25;5014896;28;20113;-55
2023/07/30 04:41:46;;;;;;;22.80;8.52;;;;;;;14.92;100.00;100787.81;5012612;28;20046;-56
2023/07/30 04:44:14;;;;;;;18.77;8.35;;;;;;;14.92;100.00;100787.81;5013747;28;20065;-55
2023/07/30 04:46:43;;;;;;;25.65;8.93;;;;;;;14.99;100.00;100790.78;5012863;28;20092;-56
2023/07/30 04:49:12;;;;;;;23.17;8.63;;;;;;;15.05;100.00;100800.84;5012231;28;20100;-62
2023/07/30 04:51:41;;;;;;;27.75;9.10;;;;;;;15.09;100.00;100807.56;5015611;28;20081;-56
2023/07/30 04:54:09;;;;;;;24.50;9.40;;;;;;;15.14;100.00;100807.19;5014016;28;20046;-55
2023/07/30 04:56:38;;;;;;;21.92;8.57;;;;;;;15.23;100.00;100808.19;5015556;28;20054;-55
2023/07/30 04:59:06;;;;;;;23.02;8.38;;;;;;;15.19;100.00;100808.47;5013033;28;20080;-54
2023/07/30 05:01:35;;;;;;;20.80;8.68;;;;;;;15.20;100.00;100817.25;5011624;28;20058;-55
2023/07/30 05:04:04;;;;;;;23.88;8.82;;;;;;;15.24;100.00;100810.72;5012242;28;20045;-55
2023/07/30 05:06:33;;;;;;;18.88;8.95;;;;;;;15.28;100.00;100814.78;5014049;28;20508;-56
2023/07/30 05:09:02;;;;;;;26.48;9.18;;;;;;;15.38;100.00;100807.75;5013714;28;20116;-56
2023/07/30 05:11:30;;;;;;;24.23;9.63;;;;;;;15.38;100.00;100802.44;5015088;28;20046;-55
2023/07/30 05:14:01;;;;;;;22.10;10.10;;;;;;;15.46;100.00;100807.09;5014942;28;20602;-61
2023/07/30 05:16:29;;;;;;;22.65;8.77;;;;;;;15.40;100.00;100807.59;5014919;28;20042;-60
2023/07/30 05:18:58;;;;;;;29.80;10.18;;;;;;;15.47;100.00;100810.56;5014807;28;20052;-60
2023/07/30 05:21:26;;;;;;;22.10;9.73;;;;;;;15.47;100.00;100816.69;5014676;28;20049;-55
2023/07/30 05:23:56;;;;;;;24.60;10.25;;;;;;;15.50;100.00;100816.44;5014837;28;20049;-55
2023/07/30 05:26:25;;;;;;;25.27;10.70;;;;;;;15.57;100.00;100813.25;5014421;28;20046;-55
2023/07/30 05:28:53;;;;;;;22.15;9.95;;;;;;;15.62;100.00;100817.16;5012091;28;20057;-55
2023/07/30 05:31:21;;;;;;;23.25;9.95;;;;;;;15.63;100.00;100818.84;5011491;28;20136;-54
2023/07/30 05:33:50;;;;;;;26.52;10.45;;;;;;;15.66;100.00;100826.53;5014127;28;20412;-55
2023/07/30 05:36:18;;;;;;;21.83;9.45;;;;;;;15.77;100.00;100824.78;5010257;28;20049;-55
2023/07/30 05:38:47;;;;;;;22.08;9.90;;;;;;;15.86;100.00;100824.00;5009901;28;20416;-55
2023/07/30 05:41:16;;;;;;;21.02;9.85;;;;;;;15.88;100.00;100819.38;5011470;28;20497;-55
2023/07/30 05:43:45;;;;;;;24.25;10.80;;;;;;;15.95;100.00;100822.34;5011662;28;20057;-54
2023/07/30 05:46:13;;;;;;;22.42;10.18;;;;;;;15.95;100.00;100822.34;5010859;28;20100;-55
2023/07/30 05:48:42;;;;;;;29.70;11.57;;;;;;;15.96;100.00;100824.84;5011055;28;20050;-55
2023/07/30 05:51:10;;;;;;;25.58;10.90;;;;;;;16.02;100.00;100812.84;5011743;28;20042;-55
2023/07/30 05:53:38;;;;;;;29.55;11.07;;;;;;;16.07;100.00;100820.44;5013272;28;20049;-55
2023/07/30 05:56:07;;;;;;;24.65;10.73;;;;;;;16.13;100.00;100818.06;5011567;28;20042;-56
2023/07/30 05:58:37;;;;;;;27.23;10.85;;;;;;;16.18;100.00;100820.31;5010827;28;20038;-56
2023/07/30 06:01:05;;;;;;;24.08;11.57;;;;;;;16.24;100.00;100827.72;5011169;28;20457;-55
2023/07/30 06:03:33;;;;;;;24.45;11.25;;;;;;;16.30;100.00;100826.34;5010557;28;20042;-56
2023/07/30 06:06:02;;;;;;;22.88;10.75;;;;;;;16.33;100.00;100826.03;5011384;28;20053;-55
2023/07/30 06:08:31;;;;;;;28.80;11.43;;;;;;;16.41;100.00;100826.19;5007670;28;20543;-55
2023/07/30 06:11:02;;;;;;;28.52;11.90;;;;;;;16.44;100.00;100828.56;5013185;28;20062;-55
2023/07/30 06:13:31;;;;;;;26.20;10.13;;;;;;;16.47;100.00;100822.16;5010591;28;20427;-55
2023/07/30 06:16:01;;;;;;;26.55;11.30;;;;;;;16.57;100.00;100823.00;5011683;28;20416;-56
2023/07/30 06:18:29;;;;;;;26.75;10.80;;;;;;;16.59;100.00;100818.38;5011420;28;20132;-56
2023/07/30 06:20:58;;;;;;;21.58;10.82;;;;;;;16.52;100.00;100828.75;5010930;28;20129;-55
2023/07/30 06:23:26;;;;;;;24.35;11.00;;;;;;;16.57;100.00;100828.31;5009096;28;20045;-55
2023/07/30 06:25:54;;;;;;;23.98;10.90;;;;;;;16.59;100.00;100814.88;5010953;28;20045;-55
2023/07/30 06:28:23;;;;;;;21.92;10.50;;;;;;;16.61;100.00;100824.41;5013507;28;20140;-55
2023/07/30 06:30:51;;;;;;;26.70;10.98;;;;;;;16.69;100.00;100827.19;5011324;28;20115;-54
2023/07/30 06:33:21;;;;;;;22.52;9.93;;;;;;;16.76;100.00;100823.97;5010421;28;20096;-56
2023/07/30 06:35:53;;;;;;;27.80;10.07;;;;;;;16.80;100.00;100820.06;5010327;28;20104;-55
2023/07/30 06:38:21;;;;;;;26.02;11.52;;;;;;;16.77;100.00;100817.66;5009032;28;20048;-55
2023/07/30 06:40:49;;;;;;;21.48;10.00;;;;;;;16.83;100.00;100827.75;5010163;28;20100;-55
2023/07/30 06:43:18;;;;;;;20.80;9.27;;;;;;;16.87;100.00;100827.31;5012058;28;20053;-55
2023/07/30 06:45:46;;;;;;;23.30;10.95;;;;;;;17.03;100.00;100829.44;5013196;28;20120;-59
2023/07/30 06:48:15;;;;;;;24.75;10.27;;;;;;;17.07;100.00;100830.00;5012462;28;20113;-59
2023/07/30 06:50:45;;;;;;;24.88;10.30;;;;;;;17.10;100.00;100829.69;5013430;28;20054;-59
2023/07/30 06:53:13;;;;;;;22.80;9.60;;;;;;;17.16;100.00;100830.94;5013038;28;20072;-59
2023/07/30 06:55:41;;;;;;;18.83;9.10;;;;;;;17.27;100.00;100827.28;5013037;28;20073;-59
2023/07/30 06:58:10;;;;;;;18.52;9.07;;;;;;;17.20;100.00;100830.50;5013010;28;20081;-59
2023/07/30 07:00:39;;;;;;;24.42;9.80;;;;;;;17.23;100.00;100832.88;5013228;28;20053;-59
2023/07/30 07:03:07;;;;;;;21.17;9.02;;;;;;;17.34;100.00;100826.56;5012966;28;20037;-60
2023/07/30 07:05:36;;;;;;;27.75;10.48;;;;;;;17.30;100.00;100830.50;5012855;28;20065;-59
2023/07/30 07:08:05;;;;;;;21.20;9.90;;;;;;;17.46;100.00;100829.03;5012788;28;20046;-59
2023/07/30 07:10:34;;;;;;;24.40;9.93;;;;;;;17.46;100.00;100837.00;5012732;28;20053;-59
2023/07/30 07:13:02;;;;;;;22.75;9.98;;;;;;;17.55;100.00;100838.81;5011368;28;20048;-59
2023/07/30 07:15:30;;;;;;;19.08;9.80;;;;;;;17.61;100.00;100840.03;5012710;28;20053;-59
2023/07/30 07:17:59;;;;;;;21.98;10.57;;;;;;;17.70;100.00;100847.16;5012857;28;20053;-59
2023/07/30 07:20:28;;;;;;;22.67;9.98;;;;;;;17.74;100.00;100844.03;5012735;28;20056;-59
2023/07/30 07:22:56;;;;;;;25.33;10.32;;;;;;;17.85;100.00;100840.34;5012635;28;20046;-59
2023/07/30 07:25:26;;;;;;;20.17;10.23;;;;;;;18.12;100.00;100843.16;5012635;28;20046;-59
2023/07/30 07:27:55;;;;;;;26.05;10.35;;;;;;;18.13;100.00;100837.69;5012311;28;20080;-55
2023/07/30 07:30:24;;;;;;;18.83;9.40;;;;;;;18.30;100.00;100841.38;5012063;28;20469;-55
2023/07/30 07:32:55;;;;;;;23.45;9.77;;;;;;;18.56;100.00;100837.97;5008977;28;20049;-55
2023/07/30 07:35:23;;;;;;;24.38;10.10;;;;;;;18.63;100.00;100832.88;5010311;28;20121;-54
2023/07/30 07:37:51;;;;;;;20.92;9.95;;;;;;;18.67;100.00;100834.25;5009683;28;20042;-55
2023/07/30 07:40:20;;;;;;;20.02;9.00;;;;;;;18.69;100.00;100848.22;5008136;28;20124;-54
2023/07/30 07:42:50;;;;;;;20.02;9.35;;;;;;;18.82;100.00;100846.00;5011966;28;20119;-55
2023/07/30 07:45:18;;;;;;;23.55;9.45;;;;;;;18.94;100.00;100846.66;5012610;28;20054;-55
2023/07/30 07:47:47;;;;;;;23.50;9.25;;;;;;;19.20;100.00;100849.31;5011457;28;20053;-54
2023/07/30 07:50:15;;;;;;;23.40;8.70;;;;;;;19.47;100.00;100846.66;5009177;28;20497;-55
2023/07/30 07:52:44;;;;;;;16.83;7.30;;;;;;;19.53;100.00;100860.19;5011233;28;20099;-55
2023/07/30 07:55:12;;;;;;;19.02;7.53;;;;;;;19.51;100.00;100861.34;5012033;28;20519;-56
2023/07/30 07:57:40;;;;;;;16.17;5.78;;;;;;;19.39;100.00;100858.94;5010069;28;20045;-54
2023/07/30 08:00:11;;;;;;;16.73;5.57;;;;;;;19.29;100.00;100860.03;5008962;28;20049;-56
2023/07/30 08:02:39;;;;;;;19.20;6.28;;;;;;;19.23;100.00;100858.84;5009185;28;20049;-59
2023/07/30 08:05:09;;;;;;;14.68;5.60;;;;;;;19.26;100.00;100863.84;5011193;28;20386;-53
2023/07/30 08:07:37;;;;;;;13.75;5.60;;;;;;;19.33;100.00;100862.22;5008407;28;20575;-54
2023/07/30 08:10:06;;;;;;;16.17;6.13;;;;;;;19.31;100.00;100874.91;5007984;28;20482;-55
2023/07/30 08:12:35;;;;;;;15.63;5.55;;;;;;;19.14;100.00;100873.09;5009930;28;20461;-55
2023/07/30 08:15:04;;;;;;;18.95;5.88;;;;;;;19.05;100.00;100862.38;5011001;28;20390;-54
2023/07/30 08:17:33;;;;;;;16.63;5.97;;;;;;;19.17;100.00;100865.63;5008902;28;20046;-53
2023/07/30 08:20:02;;;;;;;17.90;5.78;;;;;;;19.29;100.00;100871.53;5011528;28;20071;-52
2023/07/30 08:22:30;;;;;;;18.00;5.25;;;;;;;19.24;100.00;100869.34;5008023;28;20129;-56
2023/07/30 08:24:58;;;;;;;16.48;5.57;;;;;;;19.28;100.00;100863.69;5007731;28;20449;-56
2023/07/30 08:27:27;;;;;;;14.40;4.68;;;;;;;19.43;100.00;100862.16;5012029;28;20560;-55
2023/07/30 08:29:55;;;;;;;20.08;5.65;;;;;;;19.50;100.00;100862.34;5010015;28;20057;-55
2023/07/30 08:32:24;;;;;;;15.65;5.72;;;;;;;19.74;100.00;100865.16;5008261;28;20060;-56
2023/07/30 08:34:53;;;;;;;16.35;5.30;;;;;;;19.76;100.00;100857.81;5008951;28;20049;-59
2023/07/30 08:37:23;;;;;;;18.08;5.25;;;;;;;19.90;100.00;100855.56;5011123;28;21093;-59
2023/07/30 08:39:51;;;;;;;16.92;5.68;;;;;;;19.81;100.00;100869.84;5006814;28;20122;-55
2023/07/30 08:42:20;;;;;;;15.50;5.57;;;;;;;19.84;100.00;100858.88;5009279;28;20046;-53
2023/07/30 08:44:48;;;;;;;18.52;6.82;;;;;;;19.88;100.00;100858.41;5008451;28;20066;-55
2023/07/30 08:47:16;;;;;;;16.42;4.80;;;;;;;19.92;100.00;100861.59;5008982;28;20046;-56
2023/07/30 08:49:45;;;;;;;17.58;5.38;;;;;;;20.03;100.00;100861.28;5011642;28;20057;-59
2023/07/30 08:52:18;;;;;;;15.25;5.18;;;;;;;20.00;100.00;100855.41;5011630;28;20042;-59
2023/07/30 08:54:48;;;;;;;;;;;;;;;20.46;100.00;100860.38;5012157;28;20049;-59
2023/07/30 08:57:20;;;;;;;14.63;4.95;;;;;;;20.67;100.00;100860.75;5011609;28;19925;-59
2023/07/30 08:59:54;;;;;;;12.63;4.32;;;;;;;20.85;100.00;100862.47;5011526;28;20565;-55
2023/07/30 09:02:27;;;;;;;16.33;4.63;;;;;;;20.73;100.00;100865.44;5008530;28;20045;-55
2023/07/30 09:04:59;;;;;;;17.83;5.07;;;;;;;20.62;100.00;100872.94;5008478;28;20054;-55
2023/07/30 09:07:29;;;;;;;12.53;3.70;;;;;;;20.68;100.00;100859.78;5007520;28;20049;-56
2023/07/30 09:09:57;;;;;;;15.50;4.78;;;;;;;20.69;100.00;100863.28;5007390;28;21036;-55
2023/07/30 09:12:31;;;;;;;15.40;4.35;;;;;;;20.68;100.00;100875.81;5010903;28;20519;-55
2023/07/30 09:15:00;;;;;;;11.68;4.03;;;;;;;20.62;100.00;100876.44;5012275;28;20057;-56
2023/07/30 09:17:28;;;;;;;13.27;4.00;;;;;;;20.57;100.00;100881.44;5013208;28;20042;-55
2023/07/30 09:19:57;;;;;;;13.77;4.00;;;;;;;20.62;100.00;100876.44;5013475;28;20377;-54
2023/07/30 09:22:33;;;;;;;12.43;3.83;;;;;;;20.64;100.00;100863.72;5012200;28;20046;-56
2023/07/30 09:25:03;;;;;;;13.10;4.03;;;;;;;20.64;100.00;100869.06;5010800;28;20046;-56
2023/07/30 09:27:33;;;;;;;12.65;4.35;;;;;;;20.59;100.00;100887.47;5012038;28;20054;-55
2023/07/30 09:30:04;;;;;;;15.45;3.80;;;;;;;20.49;100.00;100889.44;5011963;28;20084;-55
2023/07/30 09:32:33;;;;;;;14.23;3.53;;;;;;;20.69;100.00;100873.97;5011194;28;20061;-55
2023/07/30 09:35:07;;;;;;;15.20;3.63;;;;;;;21.04;100.00;100872.81;5011642;28;20046;-54
2023/07/30 09:37:40;;;;;;;14.05;3.10;;;;;;;21.14;100.00;100871.81;5011562;28;20046;-53
2023/07/30 09:40:11;;;;;;;13.30;3.45;;;;;;;21.17;100.00;100882.16;5010201;28;20061;-55
2023/07/30 09:42:43;;;;;;;16.98;3.25;;;;;;;21.29;100.00;100880.81;5014751;28;20042;-54
2023/07/30 09:45:18;;;;;;;14.18;3.28;;;;;;;21.36;100.00;100876.44;5014639;28;20450;-55
2023/07/30 09:47:50;;;;;;;14.45;3.53;;;;;;;21.83;100.00;100882.03;5013807;28;20054;-54
2023/07/30 09:50:19;;;;;;;11.02;3.40;;;;;;;22.06;100.00;100888.31;5011004;28;20467;-56
2023/07/30 09:52:50;;;;;;;16.98;3.47;;;;;;;22.03;100.00;100888.66;5012505;28;20449;-55
2023/07/30 09:55:19;;;;;;;14.48;3.17;;;;;;;22.29;100.00;100893.72;5014073;28;20037;-53
2023/07/30 09:57:48;;;;;;;12.40;3.38;;;;;;;22.36;100.00;100885.84;5012970;28;20064;-54
2023/07/30 10:00:16;;;;;;;16.20;3.17;;;;;;;22.40;100.00;100884.47;5013864;28;20132;-54
2023/07/30 10:02:47;;;;;;;14.07;3.30;;;;;;;22.34;100.00;100874.44;5010966;28;20037;-54
2023/07/30 10:05:17;;;;;;;14.88;3.72;;;;;;;22.34;100.00;100892.34;5010821;28;20046;-54
2023/07/30 10:07:57;;;;;;;10.13;2.78;;;;;;;22.05;100.00;100888.47;5012941;28;20084;-55
2023/07/30 10:10:26;;;;;;;13.57;2.92;;;;;;;22.04;100.00;100895.66;5013928;28;20049;-55
2023/07/30 10:12:58;;;;;;;12.68;3.50;;;;;;;22.04;100.00;100894.84;5013870;28;20045;-55
2023/07/30 10:15:27;;;;;;;12.40;3.00;;;;;;;21.77;100.00;100897.78;5013918;28;20050;-54
2023/07/30 10:17:57;;;;;;;12.07;3.00;;;;;;;22.03;100.00;100898.50;5013866;28;20044;-56
2023/07/30 10:20:32;;;;;;;9.93;2.72;;;;;;;21.87;100.00;100889.56;5013969;28;20145;-56
2023/07/30 10:23:05;;;;;;;11.05;2.97;;;;;;;21.76;100.00;100904.13;5012995;28;20117;-54
2023/07/30 10:25:44;;;;;;;9.07;2.40;;;;;;;21.77;100.00;100911.16;5009238;28;20386;-58
2023/07/30 10:28:27;;;;;;;9.65;2.60;;;;;;;21.70;100.00;100909.34;5011865;28;20112;-55
2023/07/30 10:30:57;;;;;;;9.07;2.30;;;;;;;21.51;100.00;100910.53;5013749;28;20057;-54
2023/07/30 10:33:45;;;;;;;10.38;2.15;;;;;;;21.55;100.00;100918.06;5013450;28;20037;-54
2023/07/30 10:36:14;;;;;;;11.05;2.40;;;;;;;21.54;100.00;100915.56;5013643;28;20050;-58
2023/07/30 10:38:43;;;;;;;10.48;2.40;;;;;;;21.28;100.00;100921.91;5013803;28;20057;-58
2023/07/30 10:41:16;;;;;;;8.15;2.08;;;;;;;21.44;100.00;100918.38;5013434;28;20046;-53
2023/07/30 10:43:45;;;;;;;;;;;;;;;21.44;100.00;100908.50;5010174;28;20050;-58
2023/07/30 10:46:14;;;;;;;8.68;1.75;;;;;;;21.64;100.00;100905.50;5010136;28;19929;-55
2023/07/30 10:48:44;;;;;;;10.63;2.00;;;;;;;21.33;100.00;100916.91;5009980;28;20417;-54
2023/07/30 10:51:15;;;;;;;7.82;1.75;;;;;;;21.68;100.00;100909.53;5010535;28;20205;-55
2023/07/30 10:53:45;;;;;;;9.18;1.95;;;;;;;21.70;100.00;100917.38;5008297;28;20129;-55
2023/07/30 10:56:14;;;;;;;6.47;1.40;;;;;;;21.80;100.00;100920.69;5010324;28;20064;-55
2023/07/30 10:58:45;;;;;;;9.93;1.67;;;;;;;21.70;100.00;100928.91;5012179;28;20251;-58
2023/07/30 11:01:13;;;;;;;7.85;1.83;;;;;;;21.72;100.00;100934.94;5010183;28;20077;-59
2023/07/30 11:03:42;;;;;;;5.82;1.50;;;;;;;21.46;100.00;100940.47;5011039;28;20129;-58
2023/07/30 11:06:10;;;;;;;8.23;1.73;;;;;;;21.80;100.00;100936.75;5012914;28;20350;-58
2023/07/30 11:08:40;;;;;;;8.38;1.60;;;;;;;22.38;100.00;100940.06;5012934;28;20042;-59
2023/07/30 11:11:11;;;;;;;6.40;1.83;;;;;;;22.46;100.00;100933.81;5012538;28;20117;-58
2023/07/30 11:13:41;;;;;;;10.68;1.65;;;;;;;22.66;100.00;100936.03;5012042;28;20289;-59
2023/07/30 11:16:10;;;;;;;7.30;1.55;;;;;;;22.65;100.00;100939.75;5009447;28;20062;-58
2023/07/30 11:18:40;;;;;;;8.65;1.83;;;;;;;22.90;100.00;100943.91;5009137;28;20513;-59